KONA/ONA METAR and TAF weather

Enter ICAO airport designator
Station Type Date Time Source
KONA METAR 2022/06/29 00:15 UTC NOAA

KONA 290015Z AUTO 23003KT 10SM SCT070 21/20 A3003 RMK AO2 LTG DSNT SE THRU SW


Station Type Date Time Source
KONA Decoded METAR 2022/06/29 00:15 UTC NOAA

Winona, Winona Municipal Airport-Max Conrad Field, MN, United States (KONA) 44-05N 091-42W
Jun 28, 2022 - 08:15 PM EDT / 2022.06.29 0015 UTC
Wind: from the SW (230 degrees) at 3 MPH (3 KT):0
Visibility: 10 mile(s):0
Sky conditions: partly cloudy
Weather: Lightning observed
Temperature: 69 F (21 C)
Dew Point: 68 F (20 C)
Relative Humidity: 94%
Pressure (altimeter): 30.03 in. Hg (1016 hPa)
ob: KONA 290015Z AUTO 23003KT 10SM SCT070 21/20 A3003 RMK AO2 LTG DSNT SE THRU SW
cycle: 0

Station Type Date Time Source
KONA TAF UTC NOAA

Error!

Example: see airport list